Terminal Aerodrome Forecast
Issued by NWS

Home | Current Version | Previous Version | Text Only | Print | Product List | Glossary On
Versions: 1 2 3 4 5 6 7 8 9 10 11 12 13
000
FTAK31 PANC 180539
TAFADQ
TAF
PADQ 180539Z 1806/1906 VRB04KT P6SM FEW040 SCT060
     FM180900 22005KT P6SM SCT035 BKN060
      TEMPO 1809/1813 -SHRA BKN030
     FM190000 28007KT P6SM FEW040 BKN080=

USA.gov is the U.S. government's official web portal to all federal, state and local government web resources and services.